Time;durP1;ratioP1;P1;durP2;ratioP2;P2;SDS_P1;SDS_P2;PMS_P1;PMS_P2;Temp;Humidity;BMP_temperature;BMP_pressure;BME280_temperature;BME280_humidity;BME280_pressure;Samples;Min_cycle;Max_cycle;Signal;HPM_P1;HPM_P2
2021/07/16 00:01:31;;;;;;;11.75;9.77;;;18.20;99.90;;;;;;4991882;28;20506;-69
2021/07/16 00:03:58;;;;;;;12.13;10.38;;;18.20;99.90;;;;;;4992821;28;20042;-69
2021/07/16 00:06:24;;;;;;;10.95;8.85;;;18.20;99.90;;;;;;4992080;28;20112;-69
2021/07/16 00:08:51;;;;;;;10.82;9.68;;;18.20;99.90;;;;;;4994599;28;20458;-70
2021/07/16 00:11:18;;;;;;;13.05;10.23;;;18.10;99.90;;;;;;4995604;28;20081;-70
2021/07/16 00:13:44;;;;;;;12.35;9.98;;;18.10;99.90;;;;;;4995232;28;20054;-69
2021/07/16 00:16:13;;;;;;;11.32;10.15;;;18.10;99.90;;;;;;4994901;28;20046;-69
2021/07/16 00:18:39;;;;;;;13.23;10.07;;;18.10;99.90;;;;;;4995031;28;20418;-70
2021/07/16 00:21:06;;;;;;;10.85;9.73;;;18.10;99.90;;;;;;4995132;28;20046;-69
2021/07/16 00:23:33;;;;;;;12.07;9.68;;;18.00;99.90;;;;;;4995397;28;20046;-68
2021/07/16 00:25:59;;;;;;;11.30;10.05;;;18.00;99.90;;;;;;4995499;28;20038;-69
2021/07/16 00:28:26;;;;;;;13.88;10.85;;;18.00;99.90;;;;;;4994458;28;20611;-68
2021/07/16 00:30:52;;;;;;;12.27;10.57;;;17.90;99.90;;;;;;4994707;28;20096;-68
2021/07/16 00:33:20;;;;;;;13.65;10.00;;;17.90;99.90;;;;;;4995983;28;20549;-70
2021/07/16 00:35:47;;;;;;;14.55;10.45;;;18.00;99.90;;;;;;4995120;28;20152;-69
2021/07/16 00:38:14;;;;;;;13.50;9.73;;;18.00;99.90;;;;;;4994681;28;20050;-69
2021/07/16 00:40:41;;;;;;;11.18;9.25;;;17.90;99.90;;;;;;4994383;28;20105;-68
2021/07/16 00:43:07;;;;;;;12.43;10.52;;;17.90;99.90;;;;;;4995073;28;20097;-68
2021/07/16 00:45:34;;;;;;;15.75;10.40;;;17.90;99.90;;;;;;4994846;28;20046;-74
2021/07/16 00:48:01;;;;;;;12.48;10.90;;;17.90;99.90;;;;;;4995788;28;20054;-70
2021/07/16 00:50:35;;;;;;;12.88;10.95;;;17.90;99.90;;;;;;4995227;28;20046;-69
2021/07/16 00:53:03;;;;;;;14.45;12.10;;;17.90;99.90;;;;;;4995197;28;20054;-69
2021/07/16 00:55:31;;;;;;;11.90;9.65;;;17.80;99.90;;;;;;4995372;28;20042;-69
2021/07/16 00:57:58;;;;;;;14.65;9.98;;;17.90;99.90;;;;;;4994972;28;20082;-70
2021/07/16 01:00:25;;;;;;;13.48;9.40;;;17.80;99.90;;;;;;4995136;28;20125;-69
2021/07/16 01:02:52;;;;;;;11.15;9.40;;;17.90;99.90;;;;;;4995129;28;20070;-66
2021/07/16 01:05:21;;;;;;;11.02;9.13;;;17.90;99.90;;;;;;4994569;28;20050;-69
2021/07/16 01:07:51;;;;;;;11.25;10.05;;;17.80;99.90;;;;;;4994228;28;20096;-67
2021/07/16 01:10:19;;;;;;;11.75;9.63;;;17.70;99.90;;;;;;4992455;28;20097;-67
2021/07/16 01:12:51;;;;;;;10.35;9.20;;;17.70;99.90;;;;;;4994221;28;20487;-67
2021/07/16 01:15:19;;;;;;;11.57;9.90;;;17.80;99.90;;;;;;4994435;28;20442;-70
2021/07/16 01:17:46;;;;;;;12.35;9.52;;;17.70;99.90;;;;;;4994571;28;20101;-74
2021/07/16 01:20:15;;;;;;;12.13;9.70;;;17.70;99.90;;;;;;4992999;28;20042;-74
2021/07/16 01:22:43;;;;;;;10.73;9.63;;;17.60;99.90;;;;;;4994539;28;20098;-74
2021/07/16 01:25:13;;;;;;;11.57;10.35;;;17.60;99.90;;;;;;4994047;28;20050;-74
2021/07/16 01:27:41;;;;;;;12.00;10.18;;;17.40;99.90;;;;;;4994759;28;20046;-73
2021/07/16 01:30:10;;;;;;;12.48;11.10;;;17.30;99.90;;;;;;4995052;28;20503;-73
2021/07/16 01:32:38;;;;;;;11.88;10.65;;;17.20;99.90;;;;;;4996033;28;20100;-76
2021/07/16 01:35:06;;;;;;;13.30;10.32;;;17.30;99.90;;;;;;4997693;28;20054;-75
2021/07/16 01:37:35;;;;;;;12.95;10.70;;;17.30;99.90;;;;;;4979564;28;20074;-75
2021/07/16 01:40:02;;;;;;;12.32;9.75;;;17.40;99.90;;;;;;4997581;28;20043;-76
2021/07/16 01:42:35;;;;;;;13.82;10.73;;;17.30;99.90;;;;;;4996366;28;20513;-75
2021/07/16 01:45:04;;;;;;;12.27;10.32;;;17.30;99.90;;;;;;4994941;28;20495;-75
2021/07/16 01:47:31;;;;;;;11.50;10.30;;;17.30;99.90;;;;;;4994432;28;20046;-75
2021/07/16 01:49:58;;;;;;;13.15;11.35;;;17.30;99.90;;;;;;4993706;28;20410;-74
2021/07/16 01:52:25;;;;;;;13.27;11.82;;;17.30;99.90;;;;;;4994231;28;20433;-74
2021/07/16 01:54:51;;;;;;;15.30;10.60;;;17.20;99.90;;;;;;4993687;28;20568;-73
2021/07/16 01:57:18;;;;;;;16.70;11.43;;;17.20;99.90;;;;;;4994386;28;20101;-74
2021/07/16 01:59:46;;;;;;;13.18;11.07;;;17.30;99.90;;;;;;4994568;28;20105;-76
2021/07/16 02:02:13;;;;;;;12.55;9.95;;;17.30;99.90;;;;;;4996013;28;20055;-77
2021/07/16 02:04:39;;;;;;;13.55;10.75;;;17.30;99.90;;;;;;4995062;28;20043;-75
2021/07/16 02:07:06;;;;;;;12.85;9.05;;;17.30;99.90;;;;;;4994428;28;20474;-77
2021/07/16 02:09:33;;;;;;;13.10;10.93;;;17.40;99.90;;;;;;4993372;28;20206;-77
2021/07/16 02:11:59;;;;;;;12.90;10.63;;;17.40;99.90;;;;;;4993729;28;20050;-77
2021/07/16 02:14:26;;;;;;;11.57;10.15;;;17.40;99.90;;;;;;4993943;28;20058;-75
2021/07/16 02:16:55;;;;;;;12.88;10.73;;;17.30;99.90;;;;;;4993392;28;20043;-73
2021/07/16 02:19:22;;;;;;;12.05;10.75;;;17.30;99.90;;;;;;4993117;28;20051;-74
2021/07/16 02:21:48;;;;;;;13.27;10.07;;;17.30;99.90;;;;;;4993495;28;20104;-74
2021/07/16 02:24:15;;;;;;;11.52;10.18;;;17.30;99.90;;;;;;4992825;28;20120;-74
2021/07/16 02:26:42;;;;;;;11.40;10.20;;;17.20;99.90;;;;;;4992310;28;20124;-74
2021/07/16 02:29:08;;;;;;;13.30;10.25;;;17.10;99.90;;;;;;4992550;28;20458;-76
2021/07/16 02:31:35;;;;;;;11.98;10.45;;;17.10;99.90;;;;;;4993163;28;20077;-76
2021/07/16 02:34:03;;;;;;;11.70;9.65;;;17.20;99.90;;;;;;4993483;28;20050;-76
2021/07/16 02:36:30;;;;;;;15.68;11.48;;;17.30;99.90;;;;;;4993246;28;20042;-75
2021/07/16 02:38:57;;;;;;;23.65;15.48;;;17.30;99.90;;;;;;4992538;28;20039;-77
2021/07/16 02:41:23;;;;;;;16.83;11.55;;;17.40;99.90;;;;;;4993169;28;20483;-76
2021/07/16 02:43:50;;;;;;;14.95;12.85;;;17.30;99.90;;;;;;4993276;28;20112;-75
2021/07/16 02:46:17;;;;;;;15.13;10.13;;;17.30;99.90;;;;;;4991938;28;20514;-75
2021/07/16 02:48:43;;;;;;;18.88;14.43;;;17.30;99.90;;;;;;4992211;28;20097;-74
2021/07/16 02:51:11;;;;;;;34.50;23.55;;;17.20;99.90;;;;;;4992626;28;20050;-74
2021/07/16 02:53:38;;;;;;;17.67;11.82;;;17.20;99.90;;;;;;4993011;28;20046;-76
2021/07/16 02:56:05;;;;;;;38.58;24.63;;;17.10;99.90;;;;;;4993506;28;20050;-77
2021/07/16 02:58:32;;;;;;;15.77;11.82;;;17.10;99.90;;;;;;4993758;28;20483;-76
2021/07/16 03:00:59;;;;;;;14.43;10.43;;;17.00;99.90;;;;;;4995242;28;20112;-77
2021/07/16 03:03:28;;;;;;;13.18;11.75;;;16.90;99.90;;;;;;4993936;28;20434;-76
2021/07/16 03:05:54;;;;;;;16.33;11.55;;;16.80;99.90;;;;;;4993285;28;20558;-76
2021/07/16 03:08:22;;;;;;;71.78;47.10;;;16.70;99.90;;;;;;4993503;28;20483;-73
2021/07/16 03:10:49;;;;;;;34.67;23.10;;;16.70;99.90;;;;;;4993217;28;20050;-75
2021/07/16 03:13:17;;;;;;;25.52;18.95;;;16.80;99.90;;;;;;4993285;28;20494;-78
2021/07/16 03:15:44;;;;;;;101.68;61.38;;;16.80;99.90;;;;;;4992439;28;20475;-75
2021/07/16 03:18:11;;;;;;;43.83;28.88;;;16.80;99.90;;;;;;4994375;28;20104;-76
2021/07/16 03:20:40;;;;;;;37.72;25.13;;;16.80;99.90;;;;;;4993851;28;20053;-76
2021/07/16 03:23:08;;;;;;;42.15;28.20;;;16.90;99.90;;;;;;4994397;28;20046;-75
2021/07/16 03:25:37;;;;;;;42.15;27.27;;;17.00;99.90;;;;;;4993612;28;20380;-75
2021/07/16 03:28:05;;;;;;;31.42;19.88;;;17.10;99.90;;;;;;4991650;28;20046;-74
2021/07/16 03:30:32;;;;;;;21.85;14.40;;;17.10;99.90;;;;;;4991824;28;20046;-73
2021/07/16 03:33:00;;;;;;;82.22;51.55;;;17.10;99.90;;;;;;4992177;28;20042;-74
2021/07/16 03:35:28;;;;;;;18.50;14.40;;;17.10;99.90;;;;;;4992268;28;20057;-74
2021/07/16 03:37:55;;;;;;;35.00;24.23;;;17.10;99.90;;;;;;4993489;28;20043;-75
2021/07/16 03:40:26;;;;;;;65.40;42.70;;;17.00;99.90;;;;;;4992669;28;20042;-74
2021/07/16 03:42:55;;;;;;;49.83;30.88;;;17.00;99.90;;;;;;4993907;28;20046;-73
2021/07/16 03:45:22;;;;;;;81.88;52.15;;;17.10;99.90;;;;;;4996208;28;20054;-73
2021/07/16 03:47:49;;;;;;;74.22;47.28;;;17.20;99.90;;;;;;4995732;28;20057;-73
2021/07/16 03:50:17;;;;;;;63.50;43.28;;;17.30;99.90;;;;;;4995850;28;20046;-74
2021/07/16 03:52:44;;;;;;;100.53;65.90;;;17.30;99.90;;;;;;4996442;28;20050;-77
2021/07/16 03:55:12;;;;;;;92.30;57.17;;;17.30;99.90;;;;;;4996393;28;20107;-73
2021/07/16 03:57:43;;;;;;;64.90;37.90;;;17.40;99.90;;;;;;4996101;28;20077;-73
2021/07/16 04:00:14;;;;;;;29.88;20.52;;;17.40;99.90;;;;;;4995343;28;20057;-75
2021/07/16 04:02:42;;;;;;;62.40;39.65;;;17.50;99.90;;;;;;4995669;28;20054;-74
2021/07/16 04:05:10;;;;;;;64.78;43.20;;;17.50;99.90;;;;;;4995686;28;20047;-76
2021/07/16 04:07:44;;;;;;;15.30;11.35;;;17.50;99.90;;;;;;4996130;28;20046;-76
2021/07/16 04:10:11;;;;;;;33.00;20.45;;;17.40;99.90;;;;;;4996116;28;20050;-75
2021/07/16 04:12:38;;;;;;;77.65;50.30;;;17.30;99.90;;;;;;4996758;28;20120;-75
2021/07/16 04:15:06;;;;;;;88.25;52.58;;;17.30;99.90;;;;;;4996318;28;20039;-77
2021/07/16 04:17:34;;;;;;;13.45;12.05;;;17.40;99.90;;;;;;4996100;28;20177;-77
2021/07/16 04:20:01;;;;;;;16.85;12.20;;;17.50;99.90;;;;;;4995428;28;20042;-75
2021/07/16 04:22:27;;;;;;;12.02;10.80;;;17.40;99.90;;;;;;4995712;28;20046;-73
2021/07/16 04:24:54;;;;;;;10.70;9.48;;;17.40;99.90;;;;;;4995365;28;20113;-73
2021/07/16 04:27:21;;;;;;;15.38;11.18;;;17.30;99.90;;;;;;4994767;28;20552;-73
2021/07/16 04:29:47;;;;;;;18.25;11.07;;;17.30;99.90;;;;;;4994703;28;20050;-73
2021/07/16 04:32:14;;;;;;;14.40;11.23;;;17.30;99.90;;;;;;4994712;28;20042;-74
2021/07/16 04:34:43;;;;;;;21.80;15.65;;;17.30;99.90;;;;;;4995380;28;20046;-75
2021/07/16 04:37:10;;;;;;;29.08;21.02;;;17.30;99.90;;;;;;4995519;28;20054;-73
2021/07/16 04:39:37;;;;;;;28.85;23.10;;;17.40;99.90;;;;;;4994296;28;20054;-74
2021/07/16 04:42:05;;;;;;;27.48;19.73;;;17.60;99.90;;;;;;4995017;28;20092;-73
2021/07/16 04:44:32;;;;;;;15.57;12.50;;;17.70;99.90;;;;;;4994956;28;20046;-74
2021/07/16 04:46:59;;;;;;;15.02;13.10;;;17.80;99.90;;;;;;4994786;28;20462;-74
2021/07/16 04:49:26;;;;;;;22.35;15.15;;;17.90;99.90;;;;;;4994816;28;20050;-78
2021/07/16 04:51:54;;;;;;;22.67;17.20;;;18.10;99.90;;;;;;4997781;28;20174;-75
2021/07/16 04:54:21;;;;;;;14.93;11.23;;;18.20;99.90;;;;;;4996223;28;20108;-75
2021/07/16 04:56:48;;;;;;;13.80;10.65;;;18.40;99.90;;;;;;4996820;28;20515;-77
2021/07/16 04:59:15;;;;;;;13.07;10.07;;;18.50;99.90;;;;;;4996480;28;20454;-74
2021/07/16 05:01:41;;;;;;;13.32;10.77;;;18.60;99.90;;;;;;4997159;28;20043;-75
2021/07/16 05:04:08;;;;;;;19.27;13.43;;;18.70;99.90;;;;;;4997617;28;20050;-73
2021/07/16 05:06:34;;;;;;;12.10;9.88;;;18.90;99.90;;;;;;4996005;28;20101;-69
2021/07/16 05:09:03;;;;;;;13.73;12.32;;;19.10;99.90;;;;;;4993041;28;20462;-73
2021/07/16 05:11:30;;;;;;;15.63;10.88;;;19.20;99.90;;;;;;4994309;28;20093;-72
2021/07/16 05:13:58;;;;;;;19.30;12.70;;;19.40;99.90;;;;;;4994566;28;20145;-73
2021/07/16 05:16:24;;;;;;;11.88;9.50;;;19.60;99.90;;;;;;4994387;28;20101;-73
2021/07/16 05:18:51;;;;;;;12.27;9.95;;;19.70;99.90;;;;;;4994775;28;20046;-74
2021/07/16 05:21:17;;;;;;;13.00;11.55;;;19.90;99.90;;;;;;4996183;28;20050;-72
2021/07/16 05:23:44;;;;;;;14.95;12.68;;;20.00;99.90;;;;;;4994369;28;20050;-76
2021/07/16 05:26:12;;;;;;;14.07;11.25;;;20.20;99.90;;;;;;4994000;28;20046;-76
2021/07/16 05:28:39;;;;;;;10.27;8.93;;;20.30;99.90;;;;;;4993099;28;20101;-73
2021/07/16 05:31:06;;;;;;;9.48;8.60;;;20.50;99.90;;;;;;4994226;28;20105;-74
2021/07/16 05:33:33;;;;;;;9.57;8.38;;;20.60;99.90;;;;;;4994480;28;20142;-73
2021/07/16 05:35:59;;;;;;;15.38;9.80;;;20.70;99.90;;;;;;4994140;28;20453;-76
2021/07/16 05:38:26;;;;;;;9.55;8.60;;;20.80;99.90;;;;;;4993546;28;20096;-75
2021/07/16 05:40:53;;;;;;;9.30;8.23;;;21.00;99.90;;;;;;4993554;28;20050;-75
2021/07/16 05:43:21;;;;;;;9.70;8.60;;;21.20;99.90;;;;;;4993300;28;20050;-76
2021/07/16 05:45:49;;;;;;;8.95;8.02;;;21.20;99.90;;;;;;4993742;28;20072;-77
2021/07/16 05:48:16;;;;;;;8.90;7.47;;;21.30;99.90;;;;;;4993514;28;20498;-76
2021/07/16 05:50:44;;;;;;;9.75;7.43;;;21.40;99.90;;;;;;4993757;28;20046;-77
2021/07/16 05:53:11;;;;;;;9.27;8.38;;;21.40;99.90;;;;;;4993196;28;20113;-73
2021/07/16 05:55:38;;;;;;;10.80;9.25;;;21.70;99.90;;;;;;4993715;28;20514;-78
2021/07/16 05:58:05;;;;;;;11.20;9.95;;;21.70;99.90;;;;;;4993433;28;20101;-72
2021/07/16 06:00:34;;;;;;;10.15;9.15;;;21.80;99.90;;;;;;4993831;28;20069;-76
2021/07/16 06:03:01;;;;;;;9.18;8.27;;;22.00;99.90;;;;;;4993698;28;20046;-76
2021/07/16 06:05:27;;;;;;;9.75;8.00;;;22.10;99.90;;;;;;4992778;28;20442;-78
2021/07/16 06:07:54;;;;;;;10.68;8.18;;;22.40;99.90;;;;;;4993963;28;20046;-80
2021/07/16 06:10:21;;;;;;;9.30;8.35;;;22.80;99.90;;;;;;4993341;28;20046;-76
2021/07/16 06:12:48;;;;;;;8.75;7.47;;;23.20;99.90;;;;;;4994206;28;20054;-79
2021/07/16 06:15:15;;;;;;;10.27;8.20;;;23.50;99.90;;;;;;4993348;28;20093;-76
2021/07/16 06:17:43;;;;;;;9.77;7.72;;;23.60;99.90;;;;;;4993478;28;20050;-74
2021/07/16 06:20:11;;;;;;;10.95;8.05;;;24.00;99.90;;;;;;4992274;28;20042;-75
2021/07/16 06:22:37;;;;;;;7.60;6.88;;;24.10;99.90;;;;;;4992696;28;20051;-75
2021/07/16 06:25:06;;;;;;;15.18;12.88;;;24.50;99.90;;;;;;4992247;28;20092;-79
2021/07/16 06:27:33;;;;;;;14.32;11.45;;;24.80;99.90;;;;;;4984422;28;20042;-74
2021/07/16 06:29:59;;;;;;;8.60;7.28;;;25.20;99.90;;;;;;4992767;28;20388;-76
2021/07/16 06:32:26;;;;;;;8.77;7.88;;;25.50;99.90;;;;;;4992236;28;20105;-74
2021/07/16 06:34:54;;;;;;;19.33;7.72;;;25.80;99.90;;;;;;4992918;28;20043;-73
2021/07/16 06:37:21;;;;;;;6.80;6.20;;;26.00;99.90;;;;;;4993467;28;20058;-77
2021/07/16 06:39:47;;;;;;;9.05;7.75;;;26.10;99.90;;;;;;4994816;28;20120;-78
2021/07/16 06:42:14;;;;;;;11.73;9.70;;;26.10;99.90;;;;;;4993168;28;20046;-71
2021/07/16 06:44:41;;;;;;;9.93;8.90;;;26.60;99.90;;;;;;4992929;28;20050;-71
2021/07/16 06:47:07;;;;;;;9.93;8.43;;;26.90;99.90;;;;;;4992235;28;20491;-72
2021/07/16 06:49:34;;;;;;;12.20;10.25;;;27.30;99.90;;;;;;4992078;28;20050;-71
2021/07/16 06:52:02;;;;;;;9.75;8.80;;;27.50;99.90;;;;;;4991950;28;20112;-75
2021/07/16 06:54:29;;;;;;;9.40;8.50;;;27.80;99.90;;;;;;4992230;28;20392;-74
2021/07/16 06:56:56;;;;;;;10.38;8.25;;;28.00;99.90;;;;;;4992794;28;20047;-74
2021/07/16 06:59:23;;;;;;;13.52;11.18;;;28.10;99.90;;;;;;4994458;28;20104;-73
2021/07/16 07:01:50;;;;;;;8.35;7.55;;;28.30;99.90;;;;;;4992519;28;20077;-74
2021/07/16 07:04:17;;;;;;;12.48;11.07;;;28.50;99.90;;;;;;4991946;28;20053;-75
2021/07/16 07:06:44;;;;;;;17.05;13.48;;;28.60;99.90;;;;;;4992585;28;20487;-72
2021/07/16 07:09:12;;;;;;;11.18;10.07;;;28.30;99.90;;;;;;4991838;28;20418;-73
2021/07/16 07:11:38;;;;;;;7.20;6.47;;;28.20;99.90;;;;;;4992911;28;20054;-75
2021/07/16 07:14:06;;;;;;;27.65;22.33;;;28.90;99.90;;;;;;4992473;28;20549;-73
2021/07/16 07:16:32;;;;;;;9.98;8.48;;;28.90;99.90;;;;;;4991021;28;20470;-78
2021/07/16 07:18:59;;;;;;;8.75;7.88;;;29.20;99.90;;;;;;4991120;28;20042;-72
2021/07/16 07:21:26;;;;;;;12.00;8.43;;;29.30;99.90;;;;;;4992580;28;20113;-78
2021/07/16 07:23:52;;;;;;;7.22;6.50;;;29.70;99.90;;;;;;4992480;28;20050;-72
2021/07/16 07:26:20;;;;;;;8.25;7.10;;;30.20;99.90;;;;;;4992178;28;20046;-75
2021/07/16 07:28:47;;;;;;;7.35;6.65;;;30.50;99.90;;;;;;4991867;28;20046;-74
2021/07/16 07:31:13;;;;;;;10.05;8.85;;;29.90;99.70;;;;;;4992074;28;20101;-71
2021/07/16 07:33:40;;;;;;;9.43;8.05;;;30.20;99.90;;;;;;4991940;28;20565;-71
2021/07/16 07:36:07;;;;;;;7.82;6.70;;;31.00;99.90;;;;;;4992446;28;20046;-74
2021/07/16 07:38:35;;;;;;;7.13;6.47;;;31.20;98.10;;;;;;4992602;28;20050;-76
2021/07/16 07:41:01;;;;;;;8.85;8.00;;;30.90;96.30;;;;;;4992280;28;20046;-74
2021/07/16 07:43:29;;;;;;;13.07;11.30;;;30.60;96.50;;;;;;4991706;28;20490;-72
2021/07/16 07:45:56;;;;;;;9.52;8.50;;;30.30;98.70;;;;;;4991848;28;20054;-74
2021/07/16 07:48:23;;;;;;;9.88;7.47;;;30.70;98.20;;;;;;4991097;28;20057;-71
2021/07/16 07:50:49;;;;;;;8.10;7.32;;;31.30;96.80;;;;;;4991748;28;20515;-72
2021/07/16 07:53:16;;;;;;;9.57;8.68;;;31.20;95.70;;;;;;4992148;28;20046;-73
2021/07/16 07:55:43;;;;;;;8.82;6.47;;;31.60;95.90;;;;;;4991880;28;20050;-73
2021/07/16 07:58:10;;;;;;;14.77;6.93;;;32.00;95.00;;;;;;4992410;28;20051;-74
2021/07/16 08:00:38;;;;;;;11.75;10.55;;;32.10;92.60;;;;;;4991554;28;20047;-73
2021/07/16 08:03:05;;;;;;;10.85;9.75;;;32.00;95.30;;;;;;4991844;28;20120;-72
2021/07/16 08:05:31;;;;;;;8.00;7.32;;;32.20;93.00;;;;;;4991932;28;20046;-77
2021/07/16 08:07:58;;;;;;;8.02;7.22;;;32.00;91.80;;;;;;4991841;28;20042;-68
2021/07/16 08:10:25;;;;;;;8.90;8.00;;;31.60;91.70;;;;;;4991173;28;20066;-72
2021/07/16 08:12:52;;;;;;;9.55;7.55;;;32.20;92.30;;;;;;4937939;28;20058;-75
2021/07/16 08:15:19;;;;;;;21.67;17.10;;;32.60;91.80;;;;;;4991395;28;20109;-72
2021/07/16 08:17:48;;;;;;;7.95;7.25;;;32.60;90.50;;;;;;4991354;28;20097;-72
2021/07/16 08:20:14;;;;;;;10.15;8.00;;;32.70;91.80;;;;;;4991143;28;20411;-71
2021/07/16 08:22:42;;;;;;;15.07;11.55;;;32.40;90.50;;;;;;4990945;28;20046;-71
2021/07/16 08:25:11;;;;;;;12.00;10.52;;;32.40;90.50;;;;;;4991625;28;20050;-76
2021/07/16 08:27:38;;;;;;;17.33;13.48;;;32.30;90.50;;;;;;4991681;28;20042;-75
2021/07/16 08:30:06;;;;;;;7.15;6.45;;;32.30;90.40;;;;;;4994248;28;20046;-70
2021/07/16 08:32:33;;;;;;;7.60;6.38;;;32.60;90.30;;;;;;4995177;28;20047;-75
2021/07/16 08:35:01;;;;;;;7.72;6.93;;;33.30;90.30;;;;;;4995425;28;20434;-75
2021/07/16 08:37:28;;;;;;;8.30;6.78;;;33.10;86.80;;;;;;4995763;28;20046;-76
2021/07/16 08:39:57;;;;;;;7.80;7.05;;;32.80;88.70;;;;;;4994968;28;20057;-75
2021/07/16 08:42:25;;;;;;;7.88;7.05;;;33.40;86.60;;;;;;4995502;28;20046;-77
2021/07/16 08:44:53;;;;;;;10.18;6.93;;;33.90;85.10;;;;;;4994972;28;20046;-74
2021/07/16 08:47:20;;;;;;;8.15;7.45;;;34.60;83.10;;;;;;4995177;28;20050;-75
2021/07/16 08:49:46;;;;;;;7.25;6.55;;;34.90;81.40;;;;;;4994220;28;20495;-72
2021/07/16 08:52:14;;;;;;;6.63;6.13;;;34.30;77.30;;;;;;4995707;28;20050;-77
2021/07/16 08:54:46;;;;;;;9.20;7.97;;;34.50;80.00;;;;;;4994508;28;20498;-76
2021/07/16 08:57:14;;;;;;;6.82;6.22;;;34.50;80.00;;;;;;4994559;28;20058;-75
2021/07/16 08:59:41;;;;;;;7.32;6.63;;;34.90;78.10;;;;;;4994679;28;20043;-74
2021/07/16 09:02:08;;;;;;;15.30;11.23;;;35.10;79.30;;;;;;4994814;28;20046;-80
2021/07/16 09:04:38;;;;;;;10.00;8.63;;;35.20;75.60;;;;;;4995884;28;20062;-76
2021/07/16 09:07:05;;;;;;;18.52;13.23;;;34.80;76.70;;;;;;4994415;28;20046;-74
2021/07/16 09:09:37;;;;;;;12.73;11.57;;;34.90;78.10;;;;;;4994064;28;20086;-75
2021/07/16 09:12:09;;;;;;;13.13;11.77;;;34.80;77.40;;;;;;4994520;28;20038;-75
2021/07/16 09:14:37;;;;;;;22.60;16.98;;;34.50;77.20;;;;;;4995148;28;20042;-77
2021/07/16 09:17:06;;;;;;;10.85;8.95;;;34.60;77.20;;;;;;4994888;28;20042;-73
2021/07/16 09:19:36;;;;;;;11.77;9.80;;;34.50;76.70;;;;;;4993844;28;20399;-77
2021/07/16 09:22:06;;;;;;;9.95;8.05;;;35.40;75.40;;;;;;4993805;28;21929;-74
2021/07/16 09:24:34;;;;;;;14.10;9.10;;;35.00;72.90;;;;;;4994487;28;20575;-72
2021/07/16 09:27:02;;;;;;;11.52;8.80;;;34.20;73.90;;;;;;4994404;28;20101;-75
2021/07/16 09:29:29;;;;;;;22.10;17.75;;;34.60;77.70;;;;;;4974484;28;20078;-75
2021/07/16 09:32:04;;;;;;;8.90;7.65;;;35.50;74.60;;;;;;4985952;28;20050;-74
2021/07/16 09:34:31;;;;;;;10.13;8.85;;;36.10;70.80;;;;;;4993670;28;20046;-74
2021/07/16 09:37:06;;;;;;;11.90;10.75;;;36.60;69.20;;;;;;4994513;28;20101;-76
2021/07/16 09:39:35;;;;;;;9.40;8.50;;;37.10;68.60;;;;;;4993600;28;20068;-76
2021/07/16 09:42:03;;;;;;;9.57;8.27;;;36.70;67.30;;;;;;4993600;28;20042;-76
2021/07/16 09:44:34;;;;;;;8.35;7.65;;;35.90;69.10;;;;;;4994776;28;20062;-76
2021/07/16 09:47:12;;;;;;;8.63;7.78;;;36.30;71.10;;;;;;4993776;28;20049;-76
2021/07/16 09:49:40;;;;;;;7.97;7.18;;;35.60;68.20;;;;;;4993613;28;20109;-76
2021/07/16 09:52:09;;;;;;;12.20;10.70;;;36.30;70.70;;;;;;4994393;28;20050;-76
2021/07/16 09:54:37;;;;;;;8.70;7.85;;;36.70;67.90;;;;;;4994302;28;20054;-72
2021/07/16 09:57:05;;;;;;;11.13;9.20;;;36.70;66.20;;;;;;4993868;28;20116;-71
2021/07/16 09:59:32;;;;;;;8.75;7.85;;;35.70;66.30;;;;;;4993347;28;20105;-71
2021/07/16 10:01:59;;;;;;;9.13;8.25;;;35.10;69.70;;;;;;4993912;28;20050;-71
2021/07/16 10:04:27;;;;;;;11.18;6.75;;;35.20;73.00;;;;;;4994102;28;20046;-70
2021/07/16 10:06:55;;;;;;;9.85;8.93;;;35.70;70.40;;;;;;4993511;28;20487;-71
2021/07/16 10:09:23;;;;;;;9.35;7.40;;;35.70;71.10;;;;;;4992820;28;20042;-71
2021/07/16 10:11:53;;;;;;;11.25;10.05;;;36.60;68.70;;;;;;4993546;28;20097;-71
2021/07/16 10:14:20;;;;;;;13.37;11.97;;;37.20;67.20;;;;;;4993796;28;20109;-72
2021/07/16 10:16:48;;;;;;;8.10;7.40;;;37.80;64.60;;;;;;4993673;28;20400;-71
2021/07/16 10:19:16;;;;;;;9.93;8.95;;;38.10;63.60;;;;;;4992872;28;20469;-71
2021/07/16 10:21:43;;;;;;;7.45;6.78;;;38.70;60.30;;;;;;4993271;28;20593;-71
2021/07/16 10:24:12;;;;;;;8.60;7.68;;;38.30;62.60;;;;;;4993061;28;20058;-70
2021/07/16 10:26:40;;;;;;;7.32;6.10;;;38.10;62.10;;;;;;4993037;28;20043;-71
2021/07/16 10:29:33;;;;;;;8.85;7.95;;;37.80;60.50;;;;;;4992695;28;20054;-71
2021/07/16 10:32:00;;;;;;;8.00;7.28;;;37.30;62.20;;;;;;4993352;28;20134;-71
2021/07/16 10:34:33;;;;;;;7.38;6.20;;;37.70;60.90;;;;;;4994551;28;20388;-72
2021/07/16 10:37:02;;;;;;;8.10;7.32;;;37.70;61.30;;;;;;4992947;28;20142;-71
2021/07/16 10:39:52;;;;;;;7.18;6.15;;;37.10;62.60;;;;;;4993001;28;20414;-71
2021/07/16 10:42:39;;;;;;;12.43;11.00;;;37.00;63.10;;;;;;4993020;28;20050;-71
2021/07/16 10:45:09;;;;;;;8.45;7.57;;;36.70;65.70;;;;;;4992910;28;20422;-71
2021/07/16 10:47:38;;;;;;;7.90;6.00;;;36.70;62.60;;;;;;4993225;28;20053;-71
2021/07/16 10:50:05;;;;;;;8.63;6.63;;;36.10;63.80;;;;;;4992875;28;20046;-70
2021/07/16 10:52:46;;;;;;;10.02;7.65;;;35.50;63.50;;;;;;4992276;28;20046;-71
2021/07/16 10:55:14;;;;;;;6.20;5.60;;;35.90;62.00;;;;;;4992703;28;20047;-72
2021/07/16 10:57:42;;;;;;;6.70;6.07;;;36.70;61.90;;;;;;4992690;28;20058;-70
2021/07/16 11:00:14;;;;;;;5.90;5.43;;;37.00;58.80;;;;;;4992014;28;20047;-82
2021/07/16 11:02:45;;;;;;;6.95;6.35;;;37.00;59.00;;;;;;4992534;28;20581;-71
2021/07/16 11:05:50;;;;;;;8.93;8.02;;;36.80;60.00;;;;;;4993565;28;20050;-71
2021/07/16 11:09:01;;;;;;;11.85;10.05;;;37.50;61.10;;;;;;4972644;28;20051;-72
2021/07/16 11:11:49;;;;;;;9.27;8.45;;;37.20;59.10;;;;;;4956376;28;20050;-71
2021/07/16 11:14:23;;;;;;;8.77;7.78;;;36.40;60.70;;;;;;4985816;28;20105;-71
2021/07/16 11:17:02;;;;;;;9.00;7.85;;;36.10;65.00;;;;;;4992164;28;20490;-71
2021/07/16 11:19:28;;;;;;;8.45;7.15;;;36.00;62.30;;;;;;4991923;28;20057;-72
2021/07/16 11:22:06;;;;;;;7.78;7.03;;;36.90;59.80;;;;;;4992294;28;20093;-71
2021/07/16 11:24:35;;;;;;;10.40;9.40;;;37.50;59.10;;;;;;4979220;28;20583;-71
2021/07/16 11:27:05;;;;;;;8.10;7.30;;;37.40;57.00;;;;;;4991985;28;20054;-71
2021/07/16 11:29:34;;;;;;;;;;;36.80;61.40;;;;;;4972937;28;20459;-71
2021/07/16 11:32:13;;;;;;;8.18;7.35;;;35.50;63.30;;;;;;4973043;28;20346;-72
2021/07/16 11:34:48;;;;;;;10.05;7.10;;;35.10;64.40;;;;;;4972682;28;20051;-71
2021/07/16 11:37:32;;;;;;;8.80;7.85;;;34.40;65.80;;;;;;4972660;28;20081;-71
2021/07/16 11:40:04;;;;;;;7.30;6.57;;;33.70;69.40;;;;;;4984169;28;20515;-71
2021/07/16 11:42:32;;;;;;;8.32;7.32;;;33.50;68.10;;;;;;4991921;28;20134;-70
2021/07/16 11:44:58;;;;;;;10.98;8.23;;;33.30;67.70;;;;;;4992174;28;20474;-71
2021/07/16 11:47:28;;;;;;;8.27;6.75;;;33.00;68.50;;;;;;4994576;28;20101;-70
2021/07/16 11:49:57;;;;;;;8.15;7.35;;;33.00;70.40;;;;;;4991476;28;20050;-71
2021/07/16 11:52:26;;;;;;;6.90;6.30;;;33.80;72.00;;;;;;4992364;28;20443;-71
2021/07/16 11:54:54;;;;;;;8.50;7.65;;;34.60;66.40;;;;;;4992437;28;20498;-71
2021/07/16 11:57:22;;;;;;;11.65;7.47;;;35.70;64.50;;;;;;4992769;28;20137;-71
2021/07/16 11:59:49;;;;;;;7.03;6.30;;;36.30;62.80;;;;;;4993505;28;20105;-78
2021/07/16 12:02:18;;;;;;;7.97;7.13;;;36.50;60.20;;;;;;4993148;28;20124;-71
2021/07/16 12:04:48;;;;;;;8.18;6.35;;;36.30;59.60;;;;;;4995885;28;20121;-71
2021/07/16 12:07:16;;;;;;;8.07;6.55;;;35.90;60.90;;;;;;4996882;28;20046;-71
2021/07/16 12:09:44;;;;;;;7.30;6.65;;;35.20;61.60;;;;;;4995903;28;20101;-71
2021/07/16 12:12:13;;;;;;;10.82;8.85;;;34.60;63.30;;;;;;4996696;28;20570;-70
2021/07/16 12:14:54;;;;;;;7.00;6.35;;;34.60;63.90;;;;;;4997658;28;20104;-71
2021/07/16 12:17:23;;;;;;;7.93;7.20;;;34.60;64.60;;;;;;4997888;28;20050;-71
2021/07/16 12:19:52;;;;;;;5.93;5.50;;;35.20;64.10;;;;;;4996222;28;20096;-71
2021/07/16 12:22:23;;;;;;;7.40;6.57;;;35.60;59.80;;;;;;4996837;28;20093;-71
2021/07/16 12:24:50;;;;;;;7.47;6.68;;;35.60;58.70;;;;;;4996881;28;20058;-72
2021/07/16 12:27:18;;;;;;;6.50;6.00;;;35.00;61.20;;;;;;4997935;28;20113;-71
2021/07/16 12:29:45;;;;;;;7.13;5.65;;;34.90;63.00;;;;;;4996021;28;20092;-71
2021/07/16 12:32:12;;;;;;;5.97;5.47;;;35.20;59.70;;;;;;4995754;28;20269;-71
2021/07/16 12:34:46;;;;;;;11.57;5.47;;;35.90;59.60;;;;;;4994750;28;20494;-70
2021/07/16 12:37:16;;;;;;;6.10;5.50;;;36.40;58.20;;;;;;4994800;28;20407;-70
2021/07/16 12:39:44;;;;;;;7.90;6.47;;;36.90;57.00;;;;;;4994601;28;20057;-71
2021/07/16 12:42:17;;;;;;;7.03;6.35;;;37.30;54.80;;;;;;4995966;28;20046;-71